Forside
METAR-TAF:

METAR-TAF

Lufthavne :

Salem-Leckrone Airport

Salem, Illinois, USA

Breddekreds: 38-38-34N, længdekreds: 088-57-51W, højde: 175 m

Aktuelle vejr

Denne rapport blev lavet for 23 minutter siden, kl. 21:35 UTC
Vind 4 kt fra vestsydvest
Temperatur 7°C
Fugtighed 70%
Tryk 1020 hPa
Sigt: 16.1 km
skyfri

METAR: KSLO 162135Z AUTO 24004KT 10SM CLR 07/02 A3011 RMK AO2 T00700018

Tid: 15:58 (21:58 UTC)


TAF: fraværende

Vejrobservationer og prognoser fra mere end 4000 lufthavne (METAR og TAF).

De gule og røde prikker repræsenterer de meteorologiske stationer.

Flyt musen over at se navnet på stationen.

Så klik over at se vejr observationer og prognoser.

At skifte det kort: Klik på de grønne knapper med et sort kors for at zoome ind; på den grønne knap med en bindestreg for at zoome ud; eller på de grønne pile for tilstødende kort.


METAR-TAF: